This is the latest recevied weather packets stored in our database for station/object KC0AFB. If no packets are shown the sender has not sent any weather packets the latest 10 day(s).
| Time | Temp. | Humidity | Pressure | Rain* | Wind** | Luminosity | Snow |
|---|---|---|---|---|---|---|---|
| 1777413554 | 10.56° C | 38% | 1017.7 hPa | 0 mm | - | 104 W/m² | - |
| 1777413250 | 10.56° C | 39% | 1017.9 hPa | 0 mm | - | 487 W/m² | - |
| 1777412946 | 10° C | 37% | 1017.7 hPa | 0 mm | - | 469 W/m² | - |
| 1777412645 | 10.56° C | 40% | 1018.1 hPa | 0 mm | - | 475 W/m² | - |
| 1777412343 | 9.44° C | 41% | 1017.8 hPa | 0 mm | - | 517 W/m² | - |
| 1777412037 | 8.89° C | 40% | 1017.8 hPa | 0 mm | - | 140 W/m² | - |
| 1777411737 | 8.33° C | 43% | 1018.2 hPa | 0 mm | - | 114 W/m² | - |
| 1777411432 | 8.89° C | 42% | 1018 hPa | 0 mm | - | 144 W/m² | - |
| 1777411127 | 10° C | 41% | 1017.9 hPa | 0 mm | - | 636 W/m² | - |
| 1777410821 | 9.44° C | 42% | 1018.1 hPa | 0 mm | - | 656 W/m² | - |
| 1777410520 | 10° C | 44% | 1018.1 hPa | 0 mm | - | 688 W/m² | - |
| 1777410220 | 8.33° C | 44% | 1018.1 hPa | 0 mm | - | 253 W/m² | - |
| 1777409915 | 8.33° C | 44% | 1018.1 hPa | 0 mm | - | 197 W/m² | - |
| 1777409610 | 8.33° C | 42% | 1018 hPa | 0 mm | - | 232 W/m² | - |
| 1777409306 | 8.33° C | 44% | 1018.2 hPa | 0 mm | - | 196 W/m² | - |
| 1777409002 | 8.33° C | 44% | 1018.3 hPa | 0 mm | - | 174 W/m² | - |
| 1777408699 | 8.33° C | 43% | 1018.3 hPa | 0 mm | - | 196 W/m² | - |
| 1777408394 | 9.44° C | 41% | 1018.1 hPa | 0 mm | - | 223 W/m² | - |
| 1777408089 | 9.44° C | 41% | 1018.2 hPa | 0 mm | - | 720 W/m² | - |
| 1777407785 | 8.33° C | 44% | 1018.3 hPa | 0 mm | - | 692 W/m² | - |
| 1777407481 | 7.78° C | 43% | 1018.6 hPa | 0 mm | - | 186 W/m² | - |
| 1777407176 | 9.44° C | 43% | 1018.6 hPa | 0 mm | - | 186 W/m² | - |
| 1777406871 | 9.44° C | 43% | 1018.2 hPa | 0 mm | - | 496 W/m² | - |
| 1777406566 | 8.33° C | 44% | 1018.5 hPa | 0 mm | - | 282 W/m² | - |
| 1777406262 | 8.33° C | 45% | 1018.5 hPa | 0 mm | - | 411 W/m² | - |
* Rain latest hour (hover to see other rain measurements)
** Current wind speed in m/s (hover to see current wind gust speed)